<?xml version="1.0" encoding="utf-8"?>
<gpx xmlns:xsi="http://www.w3.org/2001/XMLSchema-instance" xmlns:xsd="http://www.w3.org/2001/XMLSchema" version="1.1" creator="Shapelink.com" xmlns="http://www.topografix.com/GPX/1/1" xmlns:gpxtpx="http://www.garmin.com/xmlschemas/TrackPointExtension/v1">
  <metadata>
    <name>Övrigt 1.01 km, 2020-06-01</name>
    <desc></desc>
    <author><name>Marian Moron</name></author> 
    <time>2020-06-01T09:50:36Z</time>
  </metadata>
  <trk>
    <name>Övrigt 1.01 km, 2020-06-01</name>
    <trkseg>
      <trkpt lat="51.2301057448" lon="4.458059108603">
        <ele>0</ele>
        <time>2020-06-01T09:50:36Z</time>
      </trkpt>
      <trkpt lat="51.229887396305" lon="4.457570443833">
        <ele>0</ele>
        <time>2020-06-01T09:51:09Z</time>
      </trkpt>
      <trkpt lat="51.229873817627" lon="4.456848678424">
        <ele>0</ele>
        <time>2020-06-01T09:51:42Z</time>
      </trkpt>
      <trkpt lat="51.229914302204" lon="4.456737031516">
        <ele>0</ele>
        <time>2020-06-01T09:51:51Z</time>
      </trkpt>
      <trkpt lat="51.22992637214" lon="4.456716244404">
        <ele>0</ele>
        <time>2020-06-01T09:51:53Z</time>
      </trkpt>
      <trkpt lat="51.230358291447" lon="4.456508038008">
        <ele>0</ele>
        <time>2020-06-01T09:52:43Z</time>
      </trkpt>
      <trkpt lat="51.23083413191" lon="4.456541900884">
        <ele>0</ele>
        <time>2020-06-01T09:53:26Z</time>
      </trkpt>
      <trkpt lat="51.231089863679" lon="4.456038232513">
        <ele>0</ele>
        <time>2020-06-01T09:53:54Z</time>
      </trkpt>
      <trkpt lat="51.231294214401" lon="4.455943181767">
        <ele>0</ele>
        <time>2020-06-01T09:54:09Z</time>
      </trkpt>
      <trkpt lat="51.231269320158" lon="4.45561603621">
        <ele>0</ele>
        <time>2020-06-01T09:54:26Z</time>
      </trkpt>
      <trkpt lat="51.231256412032" lon="4.455330883972">
        <ele>0</ele>
        <time>2020-06-01T09:54:41Z</time>
      </trkpt>
      <trkpt lat="51.231200001845" lon="4.455134998969">
        <ele>0</ele>
        <time>2020-06-01T09:54:59Z</time>
      </trkpt>
      <trkpt lat="51.231184579149" lon="4.454964594942">
        <ele>0</ele>
        <time>2020-06-01T09:55:15Z</time>
      </trkpt>
      <trkpt lat="51.231051055482" lon="4.454413065922">
        <ele>0</ele>
        <time>2020-06-01T09:55:44Z</time>
      </trkpt>
      <trkpt lat="51.231055162613" lon="4.4542841523">
        <ele>0</ele>
        <time>2020-06-01T09:55:51Z</time>
      </trkpt>
      <trkpt lat="51.231051474577" lon="4.454240901696">
        <ele>0</ele>
        <time>2020-06-01T09:55:53Z</time>
      </trkpt>
      <trkpt lat="51.230902947309" lon="4.453551658059">
        <ele>0</ele>
        <time>2020-06-01T09:56:28Z</time>
      </trkpt>
      <trkpt lat="51.23091375996" lon="4.453431629251">
        <ele>0</ele>
        <time>2020-06-01T09:56:47Z</time>
      </trkpt>
      <trkpt lat="51.230892218477" lon="4.453087971351">
        <ele>0</ele>
        <time>2020-06-01T09:57:05Z</time>
      </trkpt>
      <trkpt lat="51.23089196702" lon="4.453004487627">
        <ele>0</ele>
        <time>2020-06-01T09:57:09Z</time>
      </trkpt>
      <trkpt lat="51.23076959128" lon="4.452538118711">
        <ele>0</ele>
        <time>2020-06-01T09:57:35Z</time>
      </trkpt>
      <trkpt lat="51.230673534706" lon="4.451836469862">
        <ele>0</ele>
        <time>2020-06-01T09:58:14Z</time>
      </trkpt>
      <trkpt lat="51.230511093484" lon="4.451153345012">
        <ele>0</ele>
        <time>2020-06-01T09:58:53Z</time>
      </trkpt>
      <trkpt lat="51.230387292821" lon="4.450926446979">
        <ele>0</ele>
        <time>2020-06-01T09:59:13Z</time>
      </trkpt>
      <trkpt lat="51.2299464887" lon="4.451063491044">
        <ele>0</ele>
        <time>2020-06-01T09:59:50Z</time>
      </trkpt>
      <trkpt lat="51.229703581238" lon="4.451041362828">
        <ele>0</ele>
        <time>2020-06-01T10:00:13Z</time>
      </trkpt>
      <trkpt lat="51.22962965288" lon="4.450367206611">
        <ele>0</ele>
        <time>2020-06-01T10:00:49Z</time>
      </trkpt>
      <trkpt lat="51.229542564939" lon="4.449666982685">
        <ele>0</ele>
        <time>2020-06-01T10:01:28Z</time>
      </trkpt>
      <trkpt lat="51.22936059389" lon="4.44900439349">
        <ele>0.6</ele>
        <time>2020-06-01T10:02:09Z</time>
      </trkpt>
      <trkpt lat="51.229050882685" lon="4.448584627938">
        <ele>0</ele>
        <time>2020-06-01T10:03:03Z</time>
      </trkpt>
      <trkpt lat="51.2288736055" lon="4.448788643384">
        <ele>0</ele>
        <time>2020-06-01T10:03:25Z</time>
      </trkpt>
      <trkpt lat="51.228560792992" lon="4.449306477166">
        <ele>0</ele>
        <time>2020-06-01T10:04:05Z</time>
      </trkpt>
      <trkpt lat="51.228501113864" lon="4.449348470485">
        <ele>0</ele>
        <time>2020-06-01T10:05:11Z</time>
      </trkpt>
    </trkseg>
  </trk>
</gpx>